Time;durP1;ratioP1;P1;durP2;ratioP2;P2;SDS_P1;SDS_P2;PMS_P1;PMS_P2;Temp;Humidity;BMP_temperature;BMP_pressure;BME280_temperature;BME280_humidity;BME280_pressure;Samples;Min_cycle;Max_cycle;Signal;HPM_P1;HPM_P2
2023/04/20 00:01:55;;;;;;;8.82;6.63;;;7.90;84.50;;;;;;4975321;28;20561;-64
2023/04/20 00:04:21;;;;;;;10.93;6.93;;;7.90;84.50;;;;;;4975646;28;20042;-64
2023/04/20 00:06:48;;;;;;;8.65;6.63;;;7.90;84.40;;;;;;4974329;28;20398;-64
2023/04/20 00:09:14;;;;;;;9.30;7.35;;;7.90;84.30;;;;;;4974979;28;20030;-64
2023/04/20 00:11:39;;;;;;;10.25;7.03;;;7.90;84.30;;;;;;4973185;28;20030;-64
2023/04/20 00:14:06;;;;;;;8.00;6.90;;;8.00;84.50;;;;;;4975577;28;20546;-64
2023/04/20 00:16:32;;;;;;;8.73;6.80;;;8.00;84.40;;;;;;4974216;28;20035;-64
2023/04/20 00:18:58;;;;;;;9.90;7.45;;;8.00;84.30;;;;;;4974210;28;20042;-63
2023/04/20 00:21:24;;;;;;;10.10;7.28;;;8.00;84.20;;;;;;4976969;28;20034;-63
2023/04/20 00:23:50;;;;;;;9.00;7.43;;;8.00;84.10;;;;;;4980639;28;20045;-64
2023/04/20 00:26:16;;;;;;;9.07;7.70;;;8.00;84.10;;;;;;4975982;28;20030;-64
2023/04/20 00:28:43;;;;;;;9.27;7.60;;;8.00;84.10;;;;;;4978395;28;20173;-64
2023/04/20 00:31:09;;;;;;;9.45;7.80;;;8.00;84.00;;;;;;4979021;28;20109;-64
2023/04/20 00:33:34;;;;;;;8.73;7.15;;;7.90;84.00;;;;;;4977631;28;20500;-64
2023/04/20 00:36:00;;;;;;;9.18;7.32;;;7.90;84.10;;;;;;4982358;28;20042;-64
2023/04/20 00:38:26;;;;;;;9.88;7.75;;;7.90;84.20;;;;;;4981107;28;20042;-64
2023/04/20 00:40:53;;;;;;;9.80;7.63;;;7.90;84.10;;;;;;4980968;28;20062;-64
2023/04/20 00:43:20;;;;;;;11.73;7.95;;;7.90;84.20;;;;;;4978550;28;20038;-64
2023/04/20 00:45:46;;;;;;;10.63;7.95;;;7.80;84.20;;;;;;4981273;28;20391;-64
2023/04/20 00:48:12;;;;;;;10.95;8.23;;;7.80;84.20;;;;;;4980955;28;20537;-64
2023/04/20 00:50:39;;;;;;;12.27;8.10;;;7.80;84.10;;;;;;4982282;28;20995;-64
2023/04/20 00:53:06;;;;;;;10.90;8.45;;;7.80;84.00;;;;;;4976428;28;20457;-64
2023/04/20 00:55:32;;;;;;;10.52;8.23;;;7.70;84.20;;;;;;4975561;28;20027;-64
2023/04/20 00:57:58;;;;;;;9.88;8.23;;;7.60;84.30;;;;;;4977867;28;20414;-64
2023/04/20 01:00:25;;;;;;;9.82;8.05;;;7.60;84.70;;;;;;4979438;28;20043;-64
2023/04/20 01:02:50;;;;;;;11.18;8.60;;;7.60;85.50;;;;;;4983743;28;20069;-64
2023/04/20 01:05:16;;;;;;;12.10;8.30;;;7.60;84.90;;;;;;4976344;28;20463;-64
2023/04/20 01:07:42;;;;;;;11.02;8.57;;;7.50;85.00;;;;;;4974042;28;20065;-64
2023/04/20 01:10:08;;;;;;;10.88;8.75;;;7.50;85.20;;;;;;4975138;28;20042;-64
2023/04/20 01:12:34;;;;;;;9.93;8.55;;;7.60;85.30;;;;;;4974501;28;20034;-64
2023/04/20 01:15:02;;;;;;;9.73;8.38;;;7.60;85.20;;;;;;4976782;28;20513;-64
2023/04/20 01:17:27;;;;;;;12.73;9.05;;;7.70;85.20;;;;;;4980731;28;20140;-64
2023/04/20 01:19:53;;;;;;;10.80;7.97;;;7.70;85.20;;;;;;4980137;28;20580;-64
2023/04/20 01:22:20;;;;;;;12.32;8.80;;;7.70;85.10;;;;;;4977497;28;20039;-64
2023/04/20 01:24:46;;;;;;;12.65;9.05;;;7.70;85.10;;;;;;4981191;28;20142;-64
2023/04/20 01:27:13;;;;;;;13.57;9.45;;;7.80;85.20;;;;;;4979425;28;20038;-63
2023/04/20 01:29:39;;;;;;;12.82;9.38;;;7.70;85.00;;;;;;4980993;28;20042;-62
2023/04/20 01:32:05;;;;;;;11.68;8.77;;;7.70;84.90;;;;;;4978364;28;20030;-64
2023/04/20 01:34:31;;;;;;;13.43;9.73;;;7.80;85.20;;;;;;4978927;28;20034;-64
2023/04/20 01:36:57;;;;;;;12.73;9.23;;;7.80;84.80;;;;;;4983295;28;22258;-64
2023/04/20 01:39:22;;;;;;;14.55;10.18;;;7.80;84.70;;;;;;4980723;28;20030;-64
2023/04/20 01:41:48;;;;;;;12.48;10.13;;;7.80;84.70;;;;;;4981874;28;20038;-64
2023/04/20 01:44:14;;;;;;;12.75;10.02;;;7.90;84.70;;;;;;4964512;28;20043;-64
2023/04/20 01:46:39;;;;;;;11.43;9.25;;;7.80;84.60;;;;;;4980074;28;20049;-64
2023/04/20 01:49:06;;;;;;;12.95;10.23;;;7.80;84.60;;;;;;4977771;28;20053;-64
2023/04/20 01:51:33;;;;;;;14.07;10.23;;;7.80;84.70;;;;;;4982003;28;20043;-64
2023/04/20 01:53:59;;;;;;;14.13;10.00;;;7.80;84.80;;;;;;4975583;28;21584;-64
2023/04/20 01:56:24;;;;;;;13.70;10.15;;;7.80;85.00;;;;;;4979650;28;20126;-63
2023/04/20 01:58:50;;;;;;;12.80;10.13;;;7.80;85.10;;;;;;4978299;28;20034;-64
2023/04/20 02:01:16;;;;;;;12.15;9.38;;;7.80;85.00;;;;;;4977776;28;20039;-64
2023/04/20 02:03:41;;;;;;;13.15;10.23;;;8.00;85.20;;;;;;4980192;28;20101;-64
2023/04/20 02:06:07;;;;;;;14.55;10.60;;;7.80;85.20;;;;;;4980788;28;20065;-64
2023/04/20 02:08:33;;;;;;;13.48;10.38;;;7.90;85.10;;;;;;4976048;28;20110;-64
2023/04/20 02:10:59;;;;;;;16.52;11.05;;;7.90;85.00;;;;;;4978345;28;20046;-64
2023/04/20 02:13:25;;;;;;;15.18;10.52;;;7.90;84.80;;;;;;4974766;28;20050;-64
2023/04/20 02:15:50;;;;;;;14.60;11.18;;;7.90;84.70;;;;;;4977057;28;20034;-64
2023/04/20 02:18:16;;;;;;;14.27;10.73;;;7.90;84.60;;;;;;4962715;28;20683;-64
2023/04/20 02:20:43;;;;;;;14.25;10.50;;;7.90;84.60;;;;;;4980076;28;20122;-63
2023/04/20 02:23:09;;;;;;;13.88;10.57;;;7.90;84.60;;;;;;4981373;28;20044;-64
2023/04/20 02:25:35;;;;;;;14.10;10.38;;;7.90;84.60;;;;;;4980224;28;20035;-63
2023/04/20 02:28:00;;;;;;;14.23;10.73;;;7.90;84.50;;;;;;4976967;28;20038;-64
2023/04/20 02:30:26;;;;;;;20.70;11.32;;;7.90;84.50;;;;;;4978412;28;20042;-64
2023/04/20 02:32:52;;;;;;;16.40;11.45;;;7.90;84.50;;;;;;4981632;28;20514;-64
2023/04/20 02:35:17;;;;;;;13.85;10.85;;;7.90;84.50;;;;;;4982786;28;20061;-64
2023/04/20 02:37:44;;;;;;;15.73;10.75;;;7.90;85.30;;;;;;4984166;28;20033;-64
2023/04/20 02:40:11;;;;;;;15.25;11.27;;;7.80;84.50;;;;;;4984401;28;20041;-64
2023/04/20 02:42:36;;;;;;;14.48;11.30;;;7.80;84.50;;;;;;4982302;28;20129;-63
2023/04/20 02:45:03;;;;;;;16.73;11.73;;;7.80;84.50;;;;;;4985384;28;20468;-63
2023/04/20 02:47:28;;;;;;;22.75;11.93;;;7.80;84.30;;;;;;4983276;28;20038;-63
2023/04/20 02:49:54;;;;;;;14.50;11.18;;;7.80;84.30;;;;;;4981072;28;20031;-63
2023/04/20 02:52:20;;;;;;;15.95;11.07;;;7.80;84.30;;;;;;4977141;28;20133;-63
2023/04/20 02:54:46;;;;;;;16.08;11.82;;;7.80;84.30;;;;;;4976521;28;20453;-64
2023/04/20 02:57:11;;;;;;;15.93;11.45;;;7.80;84.50;;;;;;4977353;28;20041;-63
2023/04/20 02:59:37;;;;;;;16.15;11.57;;;7.70;84.50;;;;;;4980718;28;20035;-63
2023/04/20 03:02:03;;;;;;;14.93;11.50;;;7.70;84.50;;;;;;4979046;28;20041;-63
2023/04/20 03:04:29;;;;;;;14.80;11.32;;;7.70;84.50;;;;;;4979806;28;20039;-64
2023/04/20 03:06:55;;;;;;;15.38;12.07;;;7.70;84.50;;;;;;4979772;28;20110;-64
2023/04/20 03:09:21;;;;;;;16.02;11.98;;;7.70;84.50;;;;;;4978402;28;20035;-63
2023/04/20 03:11:48;;;;;;;18.02;12.80;;;7.70;84.50;;;;;;4975402;28;20494;-63
2023/04/20 03:14:13;;;;;;;18.85;12.25;;;7.70;84.50;;;;;;4979192;28;20510;-63
2023/04/20 03:16:39;;;;;;;16.17;12.52;;;7.70;84.50;;;;;;4975326;28;20044;-63
2023/04/20 03:19:05;;;;;;;17.58;13.32;;;7.70;84.60;;;;;;4983519;28;20050;-63
2023/04/20 03:21:31;;;;;;;16.48;12.80;;;7.60;84.60;;;;;;4980107;28;20066;-64
2023/04/20 03:23:57;;;;;;;19.25;13.23;;;7.60;84.70;;;;;;4979941;28;20030;-63
2023/04/20 03:26:23;;;;;;;18.88;13.68;;;7.60;84.80;;;;;;4974742;28;20046;-64
2023/04/20 03:28:50;;;;;;;17.63;13.27;;;7.60;84.80;;;;;;4955884;28;20042;-63
2023/04/20 03:31:15;;;;;;;18.90;13.38;;;7.60;84.80;;;;;;4973146;28;20035;-64
2023/04/20 03:33:41;;;;;;;18.67;13.40;;;7.60;84.80;;;;;;4976910;28;20048;-64
2023/04/20 03:36:06;;;;;;;20.67;14.05;;;7.60;85.00;;;;;;4974636;28;20046;-64
2023/04/20 03:38:32;;;;;;;19.58;13.70;;;7.60;85.10;;;;;;4977937;28;20105;-63
2023/04/20 03:40:58;;;;;;;20.33;13.40;;;7.60;85.00;;;;;;4959333;28;20059;-63
2023/04/20 03:43:23;;;;;;;19.42;14.27;;;7.60;85.10;;;;;;4956260;28;20046;-64
2023/04/20 03:45:49;;;;;;;19.33;13.85;;;7.60;85.10;;;;;;4975710;28;20038;-64
2023/04/20 03:48:15;;;;;;;18.33;13.95;;;7.50;85.00;;;;;;4980022;28;20513;-64
2023/04/20 03:50:40;;;;;;;20.65;14.25;;;7.50;85.00;;;;;;4975838;28;20035;-62
2023/04/20 03:53:06;;;;;;;22.02;14.43;;;7.50;85.20;;;;;;4975573;28;20080;-64
2023/04/20 03:55:31;;;;;;;21.02;14.73;;;7.50;85.20;;;;;;4980623;28;20085;-64
2023/04/20 03:57:57;;;;;;;19.83;14.60;;;7.50;85.20;;;;;;4976051;28;20042;-64
2023/04/20 04:00:23;;;;;;;22.30;15.18;;;7.50;85.30;;;;;;4977452;28;20045;-64
2023/04/20 04:02:49;;;;;;;21.90;14.18;;;7.50;85.50;;;;;;4975871;28;20191;-63
2023/04/20 04:05:15;;;;;;;28.42;16.30;;;7.50;85.50;;;;;;4976035;28;20057;-64
2023/04/20 04:07:40;;;;;;;23.27;14.85;;;7.50;85.50;;;;;;4976962;28;20460;-63
2023/04/20 04:10:06;;;;;;;20.17;14.45;;;7.50;85.50;;;;;;4974944;28;20089;-64
2023/04/20 04:12:32;;;;;;;21.23;14.70;;;7.50;85.50;;;;;;4974913;28;20065;-64
2023/04/20 04:14:57;;;;;;;21.15;15.02;;;7.50;85.70;;;;;;4974020;28;20121;-64
2023/04/20 04:17:23;;;;;;;20.50;14.98;;;7.50;85.70;;;;;;4975814;28;20085;-64
2023/04/20 04:19:49;;;;;;;22.48;15.02;;;7.50;85.70;;;;;;4977018;28;20043;-64
2023/04/20 04:22:14;;;;;;;21.08;15.55;;;7.50;85.60;;;;;;4976879;28;20026;-64
2023/04/20 04:24:40;;;;;;;23.40;15.93;;;7.50;85.60;;;;;;4975029;28;20038;-63
2023/04/20 04:27:06;;;;;;;25.13;16.65;;;7.50;85.60;;;;;;4976291;28;20039;-64
2023/04/20 04:29:34;;;;;;;23.27;16.50;;;7.50;85.60;;;;;;4973074;28;20410;-64
2023/04/20 04:32:04;;;;;;;23.52;16.55;;;7.50;86.50;;;;;;4967962;28;20038;-64
2023/04/20 04:34:30;;;;;;;23.42;15.65;;;7.50;85.50;;;;;;4977237;28;20054;-63
2023/04/20 04:36:56;;;;;;;24.55;17.02;;;7.50;85.50;;;;;;4979850;28;20414;-64
2023/04/20 04:39:21;;;;;;;24.90;15.63;;;7.50;85.50;;;;;;4962301;28;20053;-64
2023/04/20 04:41:47;;;;;;;24.10;16.08;;;7.50;85.60;;;;;;4959017;28;20045;-64
2023/04/20 04:44:14;;;;;;;23.75;16.40;;;7.40;85.60;;;;;;4976323;28;20045;-64
2023/04/20 04:46:40;;;;;;;27.75;18.35;;;7.40;85.70;;;;;;4976519;28;20077;-64
2023/04/20 04:49:06;;;;;;;24.40;16.73;;;7.50;85.70;;;;;;4983935;28;20405;-63
2023/04/20 04:51:32;;;;;;;23.30;16.33;;;7.50;85.80;;;;;;4984838;28;20416;-64
2023/04/20 04:53:58;;;;;;;24.85;17.25;;;7.40;85.70;;;;;;4983081;28;20038;-63
2023/04/20 04:56:23;;;;;;;19.63;13.98;;;7.50;85.90;;;;;;4980520;28;20038;-63
2023/04/20 04:58:49;;;;;;;18.73;13.35;;;7.50;85.80;;;;;;4981187;28;20113;-63
2023/04/20 05:01:15;;;;;;;16.13;12.48;;;7.40;85.00;;;;;;4984560;28;20034;-64
2023/04/20 05:03:40;;;;;;;18.15;12.82;;;7.30;84.60;;;;;;4983143;28;20038;-64
2023/04/20 05:06:06;;;;;;;19.58;13.50;;;7.30;84.60;;;;;;4981130;28;20050;-64
2023/04/20 05:08:33;;;;;;;18.55;13.35;;;7.10;84.50;;;;;;4984091;28;20401;-63
2023/04/20 05:10:58;;;;;;;20.42;13.60;;;7.10;84.90;;;;;;4983162;28;20054;-63
2023/04/20 05:13:24;;;;;;;22.70;13.40;;;7.00;85.30;;;;;;4979333;28;20554;-63
2023/04/20 05:15:49;;;;;;;18.42;13.15;;;6.90;85.50;;;;;;4980435;28;20585;-64
2023/04/20 05:18:15;;;;;;;20.52;14.80;;;6.90;85.90;;;;;;4979960;28;20566;-64
2023/04/20 05:20:41;;;;;;;20.73;14.50;;;6.80;86.20;;;;;;4979517;28;20049;-64
2023/04/20 05:23:07;;;;;;;22.50;15.07;;;6.80;86.40;;;;;;4980199;28;20299;-64
2023/04/20 05:25:32;;;;;;;22.17;14.88;;;6.90;86.60;;;;;;4984166;28;20056;-63
2023/04/20 05:27:58;;;;;;;23.80;15.77;;;6.90;86.70;;;;;;4978933;28;20045;-63
2023/04/20 05:30:24;;;;;;;24.38;14.52;;;6.90;86.70;;;;;;4973091;28;20043;-63
2023/04/20 05:32:50;;;;;;;22.52;14.65;;;6.90;86.70;;;;;;4980055;28;21018;-63
2023/04/20 05:35:16;;;;;;;21.52;13.48;;;6.90;86.60;;;;;;4977700;28;20098;-64
2023/04/20 05:37:41;;;;;;;17.70;12.73;;;7.00;87.40;;;;;;4981072;28;20038;-63
2023/04/20 05:40:08;;;;;;;19.75;13.20;;;6.90;86.30;;;;;;4983141;28;20049;-64
2023/04/20 05:42:34;;;;;;;20.42;12.95;;;7.00;86.10;;;;;;4980292;28;20074;-63
2023/04/20 05:44:59;;;;;;;20.73;12.55;;;6.90;85.90;;;;;;4976297;28;20609;-63
2023/04/20 05:47:26;;;;;;;17.70;12.82;;;6.90;85.70;;;;;;4957979;28;20035;-63
2023/04/20 05:49:52;;;;;;;20.13;12.80;;;6.80;85.90;;;;;;4980957;28;20183;-64
2023/04/20 05:52:18;;;;;;;18.58;13.52;;;6.80;86.00;;;;;;4980398;28;20104;-64
2023/04/20 05:54:43;;;;;;;21.70;15.32;;;6.80;86.20;;;;;;4975453;28;20038;-64
2023/04/20 05:57:09;;;;;;;23.83;15.77;;;6.80;86.30;;;;;;4982844;28;20081;-63
2023/04/20 05:59:35;;;;;;;21.65;14.73;;;6.80;86.10;;;;;;4983715;28;20304;-63
2023/04/20 06:02:01;;;;;;;22.17;15.02;;;6.70;86.00;;;;;;4983145;28;20125;-63
2023/04/20 06:04:27;;;;;;;24.67;16.27;;;6.60;86.20;;;;;;4978287;28;20052;-63
2023/04/20 06:06:52;;;;;;;26.65;16.20;;;6.60;86.60;;;;;;4980220;28;20030;-64
2023/04/20 06:09:18;;;;;;;25.90;16.67;;;6.60;86.80;;;;;;4975902;28;20093;-64
2023/04/20 06:11:43;;;;;;;24.45;15.77;;;6.50;87.00;;;;;;4980100;28;20117;-64
2023/04/20 06:14:10;;;;;;;25.33;15.52;;;6.50;87.00;;;;;;4980759;28;20201;-64
2023/04/20 06:16:36;;;;;;;24.13;16.10;;;6.50;87.20;;;;;;4977818;28;20034;-64
2023/04/20 06:19:02;;;;;;;23.77;15.85;;;6.50;87.20;;;;;;4978206;28;20035;-65
2023/04/20 06:21:28;;;;;;;20.88;14.68;;;6.50;87.20;;;;;;4978618;28;20089;-65
2023/04/20 06:23:54;;;;;;;21.25;14.93;;;6.50;87.30;;;;;;4981140;28;20037;-65
2023/04/20 06:26:19;;;;;;;20.58;14.40;;;6.40;87.30;;;;;;4978070;28;20499;-65
2023/04/20 06:28:47;;;;;;;22.60;14.50;;;6.40;87.30;;;;;;4977892;28;20168;-65
2023/04/20 06:31:12;;;;;;;19.38;13.27;;;6.40;87.30;;;;;;4977952;28;20176;-64
2023/04/20 06:33:38;;;;;;;20.38;14.10;;;6.50;87.50;;;;;;4979832;28;20473;-65
2023/04/20 06:36:07;;;;;;;17.42;12.52;;;6.40;87.40;;;;;;4981224;28;20212;-65
2023/04/20 06:38:32;;;;;;;18.60;13.60;;;6.50;87.50;;;;;;4978301;28;20045;-65
2023/04/20 06:41:00;;;;;;;19.45;14.10;;;6.40;87.30;;;;;;4977689;28;20046;-65
2023/04/20 06:43:26;;;;;;;20.35;13.52;;;6.40;87.30;;;;;;4977763;28;20133;-65
2023/04/20 06:45:52;;;;;;;19.00;14.10;;;6.40;87.30;;;;;;4975576;28;20038;-65
2023/04/20 06:48:17;;;;;;;19.60;13.25;;;6.40;87.50;;;;;;4977381;28;20058;-65
2023/04/20 06:50:43;;;;;;;17.00;12.93;;;6.30;87.40;;;;;;4979474;28;20104;-66
2023/04/20 06:53:08;;;;;;;17.40;13.43;;;6.30;87.70;;;;;;4977438;28;20521;-64
2023/04/20 06:55:34;;;;;;;17.90;12.63;;;6.30;88.00;;;;;;4978777;28;20674;-64
2023/04/20 06:58:00;;;;;;;17.83;12.93;;;6.30;87.70;;;;;;4978407;28;20509;-65
2023/04/20 07:00:27;;;;;;;16.52;12.10;;;6.30;87.70;;;;;;4978005;28;20166;-64
2023/04/20 07:02:52;;;;;;;17.70;13.00;;;6.30;87.70;;;;;;4976643;28;20453;-64
2023/04/20 07:05:19;;;;;;;17.95;12.32;;;6.30;88.00;;;;;;4978308;28;20038;-64
2023/04/20 07:07:45;;;;;;;14.85;11.75;;;6.20;87.80;;;;;;4979928;28;20039;-65
2023/04/20 07:10:12;;;;;;;17.80;11.95;;;6.30;88.00;;;;;;4976026;28;20034;-64
2023/04/20 07:12:39;;;;;;;18.70;13.05;;;6.30;88.20;;;;;;4976784;28;20094;-64
2023/04/20 07:15:06;;;;;;;16.73;12.27;;;6.30;88.30;;;;;;4979576;28;20041;-64
2023/04/20 07:17:32;;;;;;;18.73;12.48;;;6.30;88.00;;;;;;4979682;28;20558;-65
2023/04/20 07:20:04;;;;;;;16.52;12.20;;;6.30;88.10;;;;;;4978592;28;20121;-64
2023/04/20 07:22:30;;;;;;;17.98;13.38;;;6.20;87.90;;;;;;4978130;28;20493;-64
2023/04/20 07:24:56;;;;;;;16.95;11.75;;;6.20;88.90;;;;;;4979056;28;20073;-64
2023/04/20 07:27:21;;;;;;;18.52;12.23;;;6.30;88.10;;;;;;4980082;28;20053;-64
2023/04/20 07:29:47;;;;;;;17.08;12.70;;;6.20;88.30;;;;;;4958714;28;20494;-64
2023/04/20 07:32:13;;;;;;;16.05;11.98;;;6.20;88.40;;;;;;4980267;28;20038;-64
2023/04/20 07:34:39;;;;;;;14.45;11.52;;;6.20;88.40;;;;;;4977536;28;20042;-64
2023/04/20 07:37:04;;;;;;;18.13;13.02;;;6.30;88.60;;;;;;4979020;28;20111;-64
2023/04/20 07:39:30;;;;;;;17.13;12.88;;;6.30;88.70;;;;;;4980058;28;20049;-64
2023/04/20 07:41:56;;;;;;;16.40;12.63;;;6.30;88.90;;;;;;4976652;28;20118;-65
2023/04/20 07:44:21;;;;;;;17.95;12.18;;;6.30;88.80;;;;;;4976766;28;20046;-65
2023/04/20 07:46:48;;;;;;;18.42;13.52;;;6.30;88.90;;;;;;4976511;28;20527;-65
2023/04/20 07:49:14;;;;;;;16.67;12.85;;;6.40;89.80;;;;;;4978679;28;20030;-64
2023/04/20 07:51:40;;;;;;;16.20;13.18;;;6.40;88.70;;;;;;4979546;28;20462;-64
2023/04/20 07:54:06;;;;;;;17.05;12.13;;;6.40;88.70;;;;;;4978099;28;20454;-65
2023/04/20 07:56:32;;;;;;;18.80;12.57;;;6.40;88.70;;;;;;4977279;28;20524;-65
2023/04/20 07:58:57;;;;;;;18.67;12.43;;;6.40;88.70;;;;;;4980100;28;20042;-65
2023/04/20 08:01:24;;;;;;;16.60;12.90;;;6.50;88.80;;;;;;4953398;28;20034;-64
2023/04/20 08:03:50;;;;;;;14.73;11.95;;;6.50;88.90;;;;;;4970061;28;20038;-64
2023/04/20 08:06:16;;;;;;;14.43;11.63;;;6.50;88.70;;;;;;4976356;28;20045;-64
2023/04/20 08:08:41;;;;;;;14.65;11.88;;;6.60;88.80;;;;;;4974188;28;20506;-64
2023/04/20 08:11:07;;;;;;;17.98;13.05;;;6.60;88.90;;;;;;4979146;28;20082;-64
2023/04/20 08:13:34;;;;;;;16.05;12.23;;;6.70;89.20;;;;;;4974419;28;20540;-64
2023/04/20 08:16:00;;;;;;;14.15;11.25;;;6.60;88.90;;;;;;4956326;28;20134;-64
2023/04/20 08:18:25;;;;;;;13.25;10.45;;;6.60;88.90;;;;;;4973712;28;21676;-64
2023/04/20 08:20:51;;;;;;;11.10;9.63;;;6.70;89.00;;;;;;4972928;28;22075;-64
2023/04/20 08:23:16;;;;;;;13.05;10.38;;;6.70;88.80;;;;;;4957561;28;20537;-65
2023/04/20 08:25:42;;;;;;;11.73;9.05;;;6.80;89.00;;;;;;4974630;28;20093;-65
2023/04/20 08:28:08;;;;;;;10.73;9.40;;;6.80;88.90;;;;;;4974146;28;21262;-64
2023/04/20 08:30:33;;;;;;;12.63;9.82;;;6.80;88.90;;;;;;4976455;28;20123;-65
2023/04/20 08:32:59;;;;;;;13.45;9.95;;;6.80;88.80;;;;;;4974562;28;20042;-64
2023/04/20 08:35:25;;;;;;;14.18;11.15;;;6.90;88.70;;;;;;4974151;28;20038;-65
2023/04/20 08:37:50;;;;;;;22.45;15.38;;;6.90;88.60;;;;;;4975665;28;20104;-64
2023/04/20 08:40:19;;;;;;;18.58;13.60;;;6.90;88.60;;;;;;4975974;28;20034;-64
2023/04/20 08:42:45;;;;;;;13.95;11.73;;;7.00;88.70;;;;;;4974698;28;20031;-64
2023/04/20 08:45:11;;;;;;;13.95;12.02;;;7.00;88.60;;;;;;4976376;28;21536;-64
2023/04/20 08:47:39;;;;;;;14.43;12.15;;;7.00;88.40;;;;;;4974465;28;20035;-64
2023/04/20 08:50:06;;;;;;;15.23;12.18;;;7.00;88.50;;;;;;4975843;28;21206;-64
2023/04/20 08:52:34;;;;;;;13.90;11.55;;;7.00;88.80;;;;;;4978604;28;20142;-65
2023/04/20 08:55:00;;;;;;;13.60;10.88;;;7.10;88.80;;;;;;4978873;28;20124;-64
2023/04/20 08:57:26;;;;;;;14.90;11.63;;;7.10;88.80;;;;;;4978897;28;20117;-64
2023/04/20 08:59:51;;;;;;;12.52;11.18;;;7.10;88.70;;;;;;4977719;28;20045;-64
2023/04/20 09:02:17;;;;;;;16.25;11.95;;;7.20;89.00;;;;;;4977453;28;20498;-64
2023/04/20 09:04:43;;;;;;;13.77;11.32;;;7.20;89.10;;;;;;4974730;28;20043;-64
2023/04/20 09:07:19;;;;;;;14.90;12.07;;;7.20;89.20;;;;;;4978387;28;20042;-63
2023/04/20 09:09:58;;;;;;;14.13;11.55;;;7.20;89.50;;;;;;4959780;28;20062;-64
2023/04/20 09:12:24;;;;;;;14.98;12.65;;;7.30;89.50;;;;;;4977327;28;20058;-64
2023/04/20 09:14:50;;;;;;;13.27;10.93;;;7.20;89.20;;;;;;4978670;28;20146;-64
2023/04/20 09:17:18;;;;;;;14.73;12.05;;;7.20;89.00;;;;;;4961644;28;20125;-64
2023/04/20 09:19:44;;;;;;;11.55;10.23;;;7.20;88.90;;;;;;4976727;28;20030;-64
2023/04/20 09:22:10;;;;;;;11.30;9.50;;;7.20;88.70;;;;;;4977015;28;20065;-64
2023/04/20 09:24:37;;;;;;;10.43;9.32;;;7.20;88.60;;;;;;4973928;28;20121;-64
2023/04/20 09:27:14;;;;;;;10.60;9.50;;;7.20;88.60;;;;;;4974732;28;20031;-64
2023/04/20 09:29:40;;;;;;;11.38;9.63;;;7.20;88.60;;;;;;4975279;28;20035;-65
2023/04/20 09:32:06;;;;;;;12.02;10.38;;;7.20;88.40;;;;;;4977388;28;20045;-64
2023/04/20 09:34:42;;;;;;;12.65;11.05;;;7.20;88.50;;;;;;4979672;28;20093;-65
2023/04/20 09:37:09;;;;;;;12.02;10.27;;;7.20;88.50;;;;;;4984891;28;20042;-64
2023/04/20 09:39:39;;;;;;;12.98;10.70;;;7.20;88.30;;;;;;4980064;28;20031;-64
2023/04/20 09:42:06;;;;;;;13.90;11.38;;;7.20;88.50;;;;;;4981340;28;20528;-64
2023/04/20 09:44:32;;;;;;;12.32;10.45;;;7.20;88.70;;;;;;4980671;28;20414;-64
2023/04/20 09:46:58;;;;;;;14.50;10.82;;;7.20;88.70;;;;;;4980073;28;20042;-64
2023/04/20 09:49:25;;;;;;;13.30;10.48;;;7.20;88.80;;;;;;4980597;28;20085;-64
2023/04/20 09:51:51;;;;;;;13.43;11.02;;;7.20;88.80;;;;;;4981475;28;20038;-64
2023/04/20 09:54:17;;;;;;;11.95;9.95;;;7.20;88.60;;;;;;4982928;28;20398;-65
2023/04/20 09:56:42;;;;;;;13.68;10.57;;;7.20;88.50;;;;;;4983948;28;20085;-65
2023/04/20 09:59:08;;;;;;;11.73;9.98;;;7.20;88.80;;;;;;4985102;28;20031;-64
2023/04/20 10:01:35;;;;;;;12.27;10.32;;;7.20;88.90;;;;;;4982713;28;20030;-64
2023/04/20 10:04:02;;;;;;;11.27;10.02;;;7.20;89.10;;;;;;4978483;28;20569;-64
2023/04/20 10:06:30;;;;;;;11.15;9.82;;;7.20;89.00;;;;;;4979114;28;20031;-64
2023/04/20 10:08:56;;;;;;;11.77;10.43;;;7.20;89.20;;;;;;4985213;28;20371;-64
2023/04/20 10:11:34;;;;;;;14.30;11.75;;;7.30;89.30;;;;;;4984221;28;20075;-64
2023/04/20 10:14:19;;;;;;;13.13;10.52;;;7.40;89.70;;;;;;4983252;28;20070;-64
2023/04/20 10:16:57;;;;;;;11.52;10.20;;;7.40;89.30;;;;;;4983221;28;20042;-64
2023/04/20 10:19:23;;;;;;;12.27;9.48;;;7.40;89.00;;;;;;4983583;28;20117;-64
2023/04/20 10:21:49;;;;;;;12.60;10.10;;;7.40;88.80;;;;;;4983188;28;20121;-64
2023/04/20 10:24:28;;;;;;;11.52;9.50;;;7.40;88.80;;;;;;4983878;28;20038;-64
2023/04/20 10:26:54;;;;;;;11.18;9.23;;;7.40;89.00;;;;;;4983233;28;20394;-65
2023/04/20 10:29:27;;;;;;;10.75;9.40;;;7.50;89.90;;;;;;4981339;28;20038;-64
2023/04/20 10:31:53;;;;;;;11.70;9.45;;;7.50;89.30;;;;;;4982261;28;20047;-64
2023/04/20 10:34:58;;;;;;;11.50;8.80;;;7.50;89.20;;;;;;4983826;28;20038;-64
2023/04/20 10:37:24;;;;;;;9.77;8.37;;;7.60;89.70;;;;;;4968801;28;20042;-64
2023/04/20 10:39:50;;;;;;;11.13;9.00;;;7.60;89.00;;;;;;4984006;28;20036;-64
2023/04/20 10:42:16;;;;;;;8.55;7.47;;;7.70;89.00;;;;;;4978999;28;20405;-64
2023/04/20 10:44:49;;;;;;;6.07;5.47;;;7.70;89.20;;;;;;4980623;28;20035;-64
2023/04/20 10:47:16;;;;;;;3.83;3.42;;;7.90;89.50;;;;;;4979986;28;20070;-64
2023/04/20 10:49:42;;;;;;;3.08;2.88;;;7.80;89.20;;;;;;4981545;28;20593;-64
2023/04/20 10:52:08;;;;;;;3.20;2.80;;;7.90;89.00;;;;;;4983172;28;20085;-64
2023/04/20 10:54:38;;;;;;;2.90;2.35;;;7.90;89.10;;;;;;4978612;28;20046;-64
2023/04/20 10:57:04;;;;;;;2.67;2.47;;;8.00;89.00;;;;;;4980730;28;20039;-64
2023/04/20 10:59:30;;;;;;;2.75;2.55;;;8.00;88.80;;;;;;4983991;28;20041;-64
2023/04/20 11:01:55;;;;;;;3.13;2.85;;;8.10;88.50;;;;;;4982900;28;20473;-64
2023/04/20 11:04:31;;;;;;;3.15;2.85;;;8.10;88.30;;;;;;4980088;28;20497;-64
2023/04/20 11:07:05;;;;;;;2.70;2.50;;;8.10;88.20;;;;;;4984260;28;20038;-64
2023/04/20 11:09:33;;;;;;;2.50;2.30;;;8.20;88.10;;;;;;4981210;28;20045;-64
2023/04/20 11:12:05;;;;;;;2.67;2.47;;;8.20;87.90;;;;;;4979376;28;20039;-64
2023/04/20 11:14:34;;;;;;;2.65;2.45;;;8.20;87.60;;;;;;4980999;28;20067;-64
2023/04/20 11:17:00;;;;;;;2.65;2.45;;;8.20;87.50;;;;;;4975639;28;20054;-64
2023/04/20 11:19:34;;;;;;;2.83;2.35;;;8.30;87.60;;;;;;4978820;28;20044;-64
2023/04/20 11:22:00;;;;;;;2.72;2.53;;;8.30;88.30;;;;;;4981706;28;20117;-64
2023/04/20 11:24:32;;;;;;;3.08;2.88;;;8.30;87.50;;;;;;4980724;28;20039;-64
2023/04/20 11:26:59;;;;;;;4.60;2.92;;;8.40;87.50;;;;;;4962699;28;20391;-64
2023/04/20 11:29:35;;;;;;;2.70;2.50;;;8.40;87.30;;;;;;4979787;28;20070;-64
2023/04/20 11:32:08;;;;;;;2.90;2.70;;;8.40;86.90;;;;;;4977911;28;20038;-64
2023/04/20 11:34:35;;;;;;;2.90;2.60;;;8.40;86.70;;;;;;4980197;28;20047;-64
2023/04/20 11:37:09;;;;;;;3.08;2.65;;;8.40;86.80;;;;;;4980347;28;20043;-64
2023/04/20 11:39:35;;;;;;;3.00;2.80;;;8.50;86.70;;;;;;4977670;28;20037;-65
2023/04/20 11:42:01;;;;;;;2.33;2.22;;;8.50;86.80;;;;;;4956192;28;20057;-64
2023/04/20 11:44:26;;;;;;;3.35;3.05;;;8.50;86.70;;;;;;4975824;28;20181;-64
2023/04/20 11:46:53;;;;;;;2.97;2.78;;;8.60;86.70;;;;;;4981005;28;20402;-64
2023/04/20 11:49:20;;;;;;;3.13;2.80;;;8.50;86.50;;;;;;4981367;28;20042;-64
2023/04/20 11:51:46;;;;;;;2.95;2.75;;;8.60;86.30;;;;;;4977669;28;20038;-64
2023/04/20 11:54:12;;;;;;;3.28;3.00;;;8.60;86.30;;;;;;4980789;28;20069;-64
2023/04/20 11:56:40;;;;;;;2.92;2.72;;;8.60;86.40;;;;;;4978347;28;20038;-64
2023/04/20 11:59:08;;;;;;;3.50;3.20;;;8.60;86.40;;;;;;4966120;28;20133;-64
2023/04/20 12:01:34;;;;;;;3.45;3.15;;;8.60;86.30;;;;;;4982177;28;20524;-64
2023/04/20 12:04:00;;;;;;;3.13;2.83;;;8.70;86.40;;;;;;4978484;28;20422;-63
2023/04/20 12:06:27;;;;;;;3.38;3.08;;;8.70;86.30;;;;;;4980620;28;20185;-64
2023/04/20 12:08:54;;;;;;;3.90;3.20;;;8.70;86.20;;;;;;4980244;28;20034;-64
2023/04/20 12:11:20;;;;;;;3.15;2.92;;;8.80;86.20;;;;;;4980690;28;20062;-64
2023/04/20 12:13:45;;;;;;;3.70;3.40;;;8.80;86.20;;;;;;4981836;28;20189;-64
2023/04/20 12:16:11;;;;;;;3.40;3.20;;;8.80;86.20;;;;;;4980732;28;20026;-64
2023/04/20 12:18:37;;;;;;;3.80;3.50;;;8.80;86.00;;;;;;4980601;28;20031;-64
2023/04/20 12:21:03;;;;;;;4.07;3.70;;;8.90;85.70;;;;;;4979987;28;20053;-63
2023/04/20 12:23:29;;;;;;;3.88;3.58;;;8.90;85.60;;;;;;4977192;28;20046;-64
2023/04/20 12:25:55;;;;;;;3.90;3.60;;;8.90;85.40;;;;;;4979000;28;20054;-64
2023/04/20 12:28:21;;;;;;;4.28;3.88;;;8.90;85.20;;;;;;4982449;28;20445;-64
2023/04/20 12:30:46;;;;;;;3.78;3.47;;;8.90;85.20;;;;;;4978509;28;20042;-64
2023/04/20 12:33:12;;;;;;;4.47;4.07;;;8.90;85.00;;;;;;4978444;28;20093;-64
2023/04/20 12:35:38;;;;;;;3.88;3.58;;;8.90;84.80;;;;;;4979786;28;20617;-64
2023/04/20 12:38:03;;;;;;;4.50;4.10;;;8.90;84.80;;;;;;4982689;28;20038;-65
2023/04/20 12:40:29;;;;;;;4.05;3.72;;;8.90;84.80;;;;;;4981745;28;20045;-64